Kabwe, Zambia
Current Conditions -  °F | °C
As of 6:00 PM on Thursday 23 Oct 2014 (Local Time) from FLKK Reporting Station
Clear Clear  
Wind Chill: 82°   Ceiling: Unl
Heat Index: 82°   Visibility: 6mi
Dew Point: 50°   Wind: 6mph
Humidity: 32%   Direction: 70°ENE
Pressure: 30"   Gusts: NA
Location:  14.44°S, 28.45°E
Report Text: FLKK 231600Z 07005KT CAVOK 28/10 Q1016
Loading
Personal Weather Stations






























Interactive Weather Map
Tropical Storm Tracking
New forecast layout! Learn more

10-Day Weather Forecast

Advertisements
Track Severe Weather on mobile